createdAt,value
2019-01-29T00:02:02.684Z,72.84
2019-01-29T00:04:51.488Z,73.59
2019-01-29T00:07:40.278Z,72.96
2019-01-29T00:10:29.076Z,73.25
2019-01-29T00:13:17.857Z,73.40
2019-01-29T00:16:06.734Z,73.33
2019-01-29T00:19:03.250Z,73.41
2019-01-29T00:21:52.051Z,73.01
2019-01-29T00:24:40.839Z,72.84
2019-01-29T00:27:29.644Z,72.68
2019-01-29T00:30:37.619Z,72.66
2019-01-29T00:33:26.421Z,73.14
2019-01-29T00:36:15.206Z,73.83
2019-01-29T00:42:19.241Z,72.21
2019-01-29T00:45:28.947Z,71.97
2019-01-29T00:48:17.731Z,71.95
2019-01-29T00:51:06.605Z,73.02
2019-01-29T00:53:55.458Z,72.90
2019-01-29T00:56:44.287Z,72.19
2019-01-29T00:59:33.053Z,70.95
2019-01-29T01:02:21.863Z,71.37
2019-01-29T01:05:03.292Z,71.21
2019-01-29T01:07:52.098Z,71.44
2019-01-29T01:10:40.882Z,72.07
2019-01-29T01:13:29.692Z,72.49
2019-01-29T01:16:18.475Z,73.68
2019-01-29T01:19:07.359Z,73.80
2019-01-29T01:21:56.153Z,74.84
2019-01-29T01:24:44.964Z,75.58
2019-01-29T01:31:02.151Z,78.80
2019-01-29T01:33:51.207Z,79.04
2019-01-29T01:36:40.014Z,78.54
2019-01-29T01:39:28.802Z,79.04
2019-01-29T01:42:17.604Z,78.28
2019-01-29T01:45:27.303Z,77.74
2019-01-29T01:48:35.128Z,77.68
2019-01-29T01:51:23.907Z,77.27
2019-01-29T01:54:12.705Z,76.51
2019-01-29T01:57:01.487Z,76.24
2019-01-29T01:59:50.295Z,76.07
2019-01-29T02:02:39.079Z,76.00
2019-01-29T02:05:20.887Z,75.77
2019-01-29T02:08:09.755Z,75.57
2019-01-29T02:10:58.588Z,75.65
2019-01-29T02:13:47.445Z,76.70
2019-01-29T02:19:43.981Z,77.24
2019-01-29T02:22:32.766Z,78.54
2019-01-29T02:25:21.571Z,81.09
2019-01-29T02:28:10.377Z,80.69
2019-01-29T02:30:59.187Z,80.95
2019-01-29T02:33:47.975Z,81.55
2019-01-29T02:36:36.785Z,80.99
2019-01-29T02:39:25.565Z,81.27
2019-01-29T02:42:14.377Z,80.47
2019-01-29T02:45:03.187Z,80.11
2019-01-29T02:47:51.977Z,79.92
2019-01-29T02:50:40.783Z,79.50
2019-01-29T02:53:29.577Z,79.29
2019-01-29T02:56:37.411Z,78.64
2019-01-29T02:59:26.202Z,78.30
2019-01-29T03:02:15.004Z,77.97
2019-01-29T03:04:57.048Z,77.98
2019-01-29T03:07:45.926Z,78.52
2019-01-29T03:10:34.732Z,78.69
2019-01-29T03:13:23.525Z,79.04
2019-01-29T03:16:12.330Z,79.17
2019-01-29T03:22:08.983Z,79.22
2019-01-29T03:24:57.892Z,79.22
2019-01-29T03:27:46.694Z,79.11
2019-01-29T03:30:35.482Z,79.45
2019-01-29T03:33:24.308Z,78.93
2019-01-29T03:36:13.135Z,78.81
2019-01-29T03:39:01.925Z,78.56
2019-01-29T03:41:50.731Z,78.45
2019-01-29T03:44:39.513Z,78.30
2019-01-29T03:47:28.339Z,78.58
2019-01-29T03:50:38.031Z,78.70
2019-01-29T03:53:26.851Z,79.13
2019-01-29T03:56:15.641Z,79.13
2019-01-29T03:59:04.590Z,78.86
2019-01-29T04:01:53.407Z,78.41
2019-01-29T04:04:34.556Z,78.33
2019-01-29T04:07:23.426Z,77.60
2019-01-29T04:10:33.121Z,77.41
2019-01-29T04:13:21.933Z,77.53
2019-01-29T04:16:10.723Z,77.63
2019-01-29T04:18:59.542Z,77.94
2019-01-29T04:21:48.403Z,78.64
2019-01-29T04:27:31.120Z,78.57
2019-01-29T04:30:40.818Z,79.37
2019-01-29T04:33:29.621Z,79.46
2019-01-29T04:36:18.418Z,79.46
2019-01-29T04:39:07.970Z,78.88
2019-01-29T04:41:56.826Z,78.36
2019-01-29T04:44:45.661Z,78.37
2019-01-29T04:47:34.445Z,78.24
2019-01-29T04:50:23.320Z,78.48
2019-01-29T04:53:12.116Z,79.03
2019-01-29T04:56:00.911Z,81.77
2019-01-29T04:58:49.705Z,82.51
2019-01-29T05:01:38.513Z,81.89
2019-01-29T05:04:27.303Z,82.02
2019-01-29T05:07:09.372Z,81.62
2019-01-29T05:09:58.161Z,82.03
2019-01-29T05:12:46.972Z,82.00
2019-01-29T05:15:35.752Z,81.97
2019-01-29T05:18:24.567Z,81.80
2019-01-29T05:21:13.364Z,81.65
2019-01-29T05:24:06.847Z,80.97
2019-01-29T05:26:52.674Z,79.99
2019-01-29T05:29:41.467Z,79.43
2019-01-29T05:32:30.268Z,78.71
2019-01-29T05:35:19.060Z,78.72
2019-01-29T05:38:07.855Z,78.11
2019-01-29T05:40:56.641Z,78.33
2019-01-29T05:43:45.449Z,78.72
2019-01-29T05:49:29.359Z,78.77
2019-01-29T05:52:18.150Z,79.18
2019-01-29T05:55:27.864Z,79.09
2019-01-29T05:58:16.654Z,79.17
2019-01-29T06:01:05.465Z,79.42
2019-01-29T06:03:46.989Z,79.56
2019-01-29T06:06:35.880Z,78.89
2019-01-29T06:09:24.708Z,78.46
2019-01-29T06:12:13.540Z,78.04
2019-01-29T06:15:02.336Z,77.57
2019-01-29T06:17:51.135Z,77.57
2019-01-29T06:20:39.926Z,77.81
2019-01-29T06:23:29.061Z,78.23
2019-01-29T06:26:17.847Z,78.14
2019-01-29T06:29:06.653Z,78.22
2019-01-29T06:31:55.449Z,78.47
2019-01-29T06:34:44.264Z,79.16
2019-01-29T06:37:33.054Z,81.02
2019-01-29T06:40:42.825Z,81.81
2019-01-29T06:43:31.628Z,83.40
2019-01-29T06:46:20.414Z,84.01
2019-01-29T06:49:09.299Z,84.37
2019-01-29T06:51:58.093Z,83.54
2019-01-29T06:54:46.969Z,83.66
2019-01-29T06:57:35.754Z,83.79
2019-01-29T07:00:24.454Z,83.60
2019-01-29T07:03:13.242Z,84.27
2019-01-29T07:06:02.041Z,85.19
2019-01-29T07:08:50.839Z,84.94
2019-01-29T07:11:39.651Z,84.98
2019-01-29T07:14:28.445Z,84.86
2019-01-29T07:20:13.495Z,84.13
2019-01-29T07:23:02.286Z,84.14
2019-01-29T07:25:51.160Z,83.52
2019-01-29T07:28:39.952Z,82.38
2019-01-29T07:31:28.753Z,82.06
2019-01-29T07:34:17.540Z,82.18
2019-01-29T07:37:06.345Z,81.92
2019-01-29T07:39:55.152Z,82.11
2019-01-29T07:42:43.960Z,81.63
2019-01-29T07:45:32.777Z,81.67
2019-01-29T07:48:21.583Z,81.77
2019-01-29T07:51:10.442Z,81.79
2019-01-29T07:53:59.251Z,81.13
2019-01-29T07:56:48.050Z,81.19
2019-01-29T07:59:36.843Z,81.33
2019-01-29T08:02:18.566Z,80.59
2019-01-29T08:05:28.284Z,80.63
2019-01-29T08:08:17.091Z,80.38
2019-01-29T08:11:05.879Z,79.34
2019-01-29T08:13:54.684Z,80.20
2019-01-29T08:16:43.463Z,78.94
2019-01-29T08:19:32.266Z,79.22
2019-01-29T08:22:21.063Z,79.20
2019-01-29T08:25:30.009Z,77.87
2019-01-29T08:28:18.815Z,78.06
2019-01-29T08:31:07.600Z,78.27
2019-01-29T08:33:56.407Z,77.66
2019-01-29T08:36:45.192Z,77.49
2019-01-29T08:39:34.006Z,77.16
2019-01-29T08:42:41.813Z,77.19
2019-01-29T08:45:30.751Z,76.68
2019-01-29T08:48:19.539Z,76.66
2019-01-29T08:51:08.344Z,76.36
2019-01-29T08:53:57.141Z,76.54
2019-01-29T08:56:45.948Z,77.09
2019-01-29T08:59:34.834Z,76.99
2019-01-29T09:02:16.151Z,76.88
2019-01-29T09:05:26.196Z,77.60
2019-01-29T09:08:15.005Z,76.46
2019-01-29T09:11:03.792Z,76.67
2019-01-29T09:13:52.600Z,76.51
2019-01-29T09:16:41.491Z,76.57
2019-01-29T09:19:30.291Z,76.42
2019-01-29T09:22:19.105Z,76.20
2019-01-29T09:25:28.795Z,76.00
2019-01-29T09:28:36.628Z,75.84
2019-01-29T09:31:25.414Z,75.28
2019-01-29T09:34:14.219Z,74.57
2019-01-29T09:37:03.013Z,73.68
2019-01-29T09:39:51.815Z,73.30
2019-01-29T09:42:40.619Z,73.41
2019-01-29T09:45:29.492Z,73.12
2019-01-29T09:51:46.689Z,73.52
2019-01-29T09:54:35.474Z,74.11
2019-01-29T09:57:24.349Z,73.83
2019-01-29T10:00:34.083Z,73.77
2019-01-29T10:03:14.257Z,73.14
2019-01-29T10:06:03.098Z,72.78
2019-01-29T10:08:51.960Z,72.25
2019-01-29T10:11:40.831Z,71.41
2019-01-29T10:14:29.679Z,71.88
2019-01-29T10:20:28.242Z,72.28
2019-01-29T10:23:17.076Z,71.28
2019-01-29T10:26:05.952Z,70.95
2019-01-29T10:28:54.781Z,70.66
2019-01-29T10:31:43.687Z,69.91
2019-01-29T10:34:32.599Z,69.35
2019-01-29T10:37:21.491Z,69.77
2019-01-29T10:40:31.262Z,69.41
2019-01-29T10:43:20.130Z,68.97
2019-01-29T10:49:16.678Z,67.24
2019-01-29T10:52:05.735Z,67.04
2019-01-29T10:54:54.548Z,65.33
2019-01-29T10:57:43.583Z,63.96
2019-01-29T11:00:53.290Z,66.99
2019-01-29T11:03:34.702Z,67.37
2019-01-29T11:06:23.485Z,67.35
2019-01-29T11:09:12.659Z,67.98
2019-01-29T11:12:01.470Z,68.89
2019-01-29T11:14:50.259Z,68.80
2019-01-29T11:17:39.066Z,68.68
2019-01-29T11:20:27.858Z,69.11
2019-01-29T11:23:16.656Z,69.72
2019-01-29T11:26:05.886Z,70.00
2019-01-29T11:28:54.758Z,70.76
2019-01-29T11:31:43.566Z,71.54
2019-01-29T11:34:32.351Z,71.65
2019-01-29T11:37:21.169Z,72.49
2019-01-29T11:40:30.255Z,72.61
2019-01-29T11:43:19.058Z,72.70
2019-01-29T11:46:08.018Z,73.92
2019-01-29T11:48:56.835Z,74.70
2019-01-29T11:51:45.627Z,74.36
2019-01-29T11:54:27.366Z,75.05
2019-01-29T11:57:16.159Z,74.93
2019-01-29T12:00:44.910Z,75.03
2019-01-29T12:03:33.694Z,74.80
2019-01-29T12:06:22.517Z,74.70
2019-01-29T12:09:11.382Z,74.62
2019-01-29T12:12:00.205Z,73.93
2019-01-29T12:14:49.128Z,74.18
2019-01-29T12:17:37.907Z,74.75
2019-01-29T12:20:26.778Z,74.86
2019-01-29T12:23:15.656Z,75.04
2019-01-29T12:26:12.689Z,74.77
2019-01-29T12:28:55.127Z,75.00
2019-01-29T12:31:44.098Z,76.17
2019-01-29T12:34:32.900Z,76.53
2019-01-29T12:37:21.697Z,76.76
2019-01-29T12:40:31.404Z,78.44
2019-01-29T12:43:20.219Z,77.72
2019-01-29T12:46:09.072Z,76.58
2019-01-29T12:48:57.874Z,76.76
2019-01-29T12:54:48.676Z,75.73
2019-01-29T12:57:37.476Z,75.47
2019-01-29T13:03:25.524Z,73.41
2019-01-29T13:06:14.357Z,72.95
2019-01-29T13:11:59.032Z,71.96
2019-01-29T13:14:47.893Z,72.38
2019-01-29T13:17:36.683Z,72.01
2019-01-29T13:20:25.529Z,72.90
2019-01-29T13:23:14.343Z,73.90
2019-01-29T13:26:03.124Z,74.26
2019-01-29T13:28:51.938Z,73.71
2019-01-29T13:31:40.732Z,73.29
2019-01-29T13:34:29.558Z,73.45
2019-01-29T13:37:18.363Z,73.21
2019-01-29T13:43:35.887Z,73.39
2019-01-29T13:46:15.563Z,72.55
2019-01-29T13:49:04.371Z,72.49
2019-01-29T13:51:53.169Z,73.56
2019-01-29T13:54:41.975Z,73.13
2019-01-29T13:57:30.802Z,72.41
2019-01-29T14:00:40.507Z,71.16
2019-01-29T14:03:29.313Z,71.58
2019-01-29T14:06:18.117Z,71.50
2019-01-29T14:12:02.991Z,70.80
2019-01-29T14:14:51.775Z,71.72
2019-01-29T14:17:40.587Z,71.68
2019-01-29T14:20:29.376Z,71.12
2019-01-29T14:23:18.182Z,71.55
2019-01-29T14:26:07.046Z,70.92
2019-01-29T14:28:55.841Z,71.01
2019-01-29T14:31:44.650Z,70.21
2019-01-29T14:34:33.459Z,70.82
2019-01-29T14:37:42.461Z,69.63
2019-01-29T14:43:47.790Z,68.78
2019-01-29T14:46:29.149Z,68.30
2019-01-29T14:49:17.945Z,68.05
2019-01-29T14:52:06.824Z,68.53
2019-01-29T14:54:55.607Z,68.08
2019-01-29T14:57:44.418Z,68.09
2019-01-29T15:00:54.167Z,67.91
2019-01-29T15:03:42.924Z,68.81
2019-01-29T15:06:32.920Z,68.46
2019-01-29T15:09:22.239Z,68.23
2019-01-29T15:12:11.111Z,68.09
2019-01-29T15:18:26.744Z,67.62
2019-01-29T15:24:23.295Z,68.92
2019-01-29T15:27:12.076Z,69.31
2019-01-29T15:30:00.926Z,69.77
2019-01-29T15:32:49.704Z,70.33
2019-01-29T15:35:38.583Z,70.20
2019-01-29T15:38:27.364Z,70.44
2019-01-29T15:41:16.173Z,70.69
2019-01-29T15:44:05.027Z,70.42
2019-01-29T15:46:51.023Z,70.86
2019-01-29T15:49:39.825Z,71.01
2019-01-29T15:52:28.924Z,71.41
2019-01-29T15:55:18.078Z,71.73
2019-01-29T16:01:22.394Z,72.01
2019-01-29T16:04:11.178Z,72.38
2019-01-29T16:06:59.994Z,72.82
2019-01-29T16:09:48.784Z,73.23
2019-01-29T16:12:37.588Z,73.24
2019-01-29T16:18:42.510Z,73.83
2019-01-29T16:21:31.359Z,74.11
2019-01-29T16:24:20.143Z,74.11
2019-01-29T16:27:08.948Z,74.20
2019-01-29T16:29:58.050Z,74.28
2019-01-29T16:32:46.843Z,74.40
2019-01-29T16:38:51.819Z,73.96
2019-01-29T16:41:33.869Z,73.74
2019-01-29T16:44:22.684Z,74.27
2019-01-29T16:47:11.469Z,74.40
2019-01-29T16:50:00.276Z,74.18
2019-01-29T16:52:49.086Z,74.12
2019-01-29T16:55:38.062Z,74.42
2019-01-29T16:58:26.904Z,74.24
2019-01-29T17:04:30.500Z,74.90
2019-01-29T17:07:19.284Z,75.25
2019-01-29T17:10:28.313Z,75.89
2019-01-29T17:13:17.126Z,75.96
2019-01-29T17:16:05.945Z,75.82
2019-01-29T17:18:54.740Z,75.66
2019-01-29T17:21:43.543Z,76.48
2019-01-29T17:24:32.331Z,76.63
2019-01-29T17:27:21.147Z,76.74
2019-01-29T17:30:02.373Z,76.79
2019-01-29T17:32:51.186Z,76.83
2019-01-29T17:36:00.899Z,76.82
2019-01-29T17:38:49.706Z,77.25
2019-01-29T17:41:31.702Z,77.60
2019-01-29T17:44:20.491Z,77.96
2019-01-29T17:47:09.304Z,77.98
2019-01-29T17:49:58.104Z,77.97
2019-01-29T17:52:46.915Z,77.99
2019-01-29T17:59:04.705Z,77.74
2019-01-29T18:05:22.055Z,78.09
2019-01-29T18:08:10.868Z,78.27
2019-01-29T18:10:59.669Z,78.12
2019-01-29T18:13:48.459Z,78.37
2019-01-29T18:16:37.296Z,77.95
2019-01-29T18:19:26.106Z,78.07
2019-01-29T18:22:14.934Z,78.08
2019-01-29T18:28:32.194Z,77.99
2019-01-29T18:31:20.982Z,78.08
2019-01-29T18:34:09.850Z,78.16
2019-01-29T18:36:58.644Z,78.12
2019-01-29T18:39:47.830Z,77.98
2019-01-29T18:42:30.495Z,77.89
2019-01-29T18:45:20.063Z,77.86
2019-01-29T18:48:08.921Z,77.79
2019-01-29T18:50:57.822Z,78.00
2019-01-29T18:53:46.810Z,78.36
2019-01-29T18:56:36.126Z,78.49
2019-01-29T18:59:25.422Z,78.64
2019-01-29T19:02:14.669Z,78.62
2019-01-29T19:14:43.247Z,78.10
2019-01-29T19:27:38.619Z,78.38
2019-01-29T19:30:49.168Z,78.49
2019-01-29T19:33:31.600Z,78.34
2019-01-29T19:42:55.523Z,78.28
2019-01-29T19:52:29.152Z,78.19
2019-01-29T19:58:47.700Z,78.62
2019-01-29T20:05:12.081Z,80.03
2019-01-29T20:17:34.381Z,80.93
2019-01-29T20:26:50.879Z,79.82
2019-01-29T20:32:52.909Z,79.10
2019-01-29T20:35:53.777Z,78.72
2019-01-29T20:49:03.669Z,79.26
2019-01-29T21:07:38.021Z,78.78
2019-01-29T21:11:01.242Z,78.68
2019-01-29T21:13:57.958Z,78.79
2019-01-29T21:23:38.783Z,77.87
2019-01-29T21:29:26.484Z,77.89
2019-01-29T21:32:08.758Z,78.07
2019-01-29T21:34:57.755Z,77.79
2019-01-29T21:38:05.781Z,77.92
2019-01-29T21:40:54.676Z,78.01
2019-01-29T21:43:43.566Z,77.97
2019-01-29T21:46:32.409Z,77.66
2019-01-29T21:49:21.214Z,77.56
2019-01-29T21:52:10.054Z,77.65
2019-01-29T21:54:58.858Z,77.90
2019-01-29T21:57:47.761Z,77.90
2019-01-29T22:00:57.471Z,77.85
2019-01-29T22:03:46.300Z,78.35
2019-01-29T22:06:35.095Z,78.51
2019-01-29T22:09:23.967Z,78.61
2019-01-29T22:12:12.788Z,78.18
2019-01-29T22:15:01.608Z,78.15
2019-01-29T22:17:50.409Z,78.43
2019-01-29T22:20:39.294Z,78.16
2019-01-29T22:23:28.110Z,78.17
2019-01-29T22:26:16.917Z,77.60
2019-01-29T22:29:05.733Z,77.87
2019-01-29T22:31:47.293Z,77.46
2019-01-29T22:34:36.110Z,77.71
2019-01-29T22:37:24.911Z,77.96
2019-01-29T22:40:34.630Z,77.96
2019-01-29T22:43:23.429Z,78.46
2019-01-29T22:46:12.243Z,78.21
2019-01-29T22:49:01.040Z,77.84
2019-01-29T22:51:49.853Z,77.57
2019-01-29T22:54:38.643Z,77.54
2019-01-29T22:57:27.471Z,77.58
2019-01-29T23:00:56.830Z,77.68
2019-01-29T23:03:45.646Z,77.41
2019-01-29T23:06:55.354Z,77.91
2019-01-29T23:10:03.263Z,77.93
2019-01-29T23:12:52.137Z,78.14
2019-01-29T23:18:35.761Z,78.09
2019-01-29T23:21:24.586Z,78.34
2019-01-29T23:27:21.146Z,78.38
2019-01-29T23:30:29.339Z,79.15
2019-01-29T23:33:10.992Z,79.21
2019-01-29T23:35:59.798Z,78.87
2019-01-29T23:38:48.681Z,79.12
2019-01-29T23:41:37.539Z,79.62
2019-01-29T23:44:26.484Z,79.33
2019-01-29T23:47:15.300Z,79.20
2019-01-29T23:53:32.803Z,79.20
2019-01-29T23:56:21.680Z,79.03
2019-01-29T23:59:10.493Z,79.05
